createdAt,value
2023-07-03T00:01:42.354Z,11.38
2023-07-03T00:04:12.134Z,11.38
2023-07-03T00:06:40.345Z,11.36
2023-07-03T00:09:10.652Z,11.33
2023-07-03T00:11:39.856Z,11.35
2023-07-03T00:14:09.972Z,11.35
2023-07-03T00:16:38.023Z,11.37
2023-07-03T00:19:07.319Z,11.34
2023-07-03T00:21:44.595Z,11.33
2023-07-03T00:24:13.126Z,11.38
2023-07-03T00:26:42.213Z,11.33
2023-07-03T00:29:12.458Z,11.27
2023-07-03T00:31:40.460Z,11.24
2023-07-03T00:34:08.494Z,11.24
2023-07-03T00:36:36.448Z,11.23
2023-07-03T00:39:05.811Z,11.16
2023-07-03T00:41:35.588Z,11.09
2023-07-03T00:44:04.123Z,11.12
2023-07-03T00:46:33.574Z,11.13
2023-07-03T00:49:01.781Z,11.13
2023-07-03T00:51:29.888Z,11.18
2023-07-03T00:53:57.894Z,11.11
2023-07-03T00:56:25.922Z,11.12
2023-07-03T00:58:53.969Z,11.14
2023-07-03T01:01:29.277Z,11.12
2023-07-03T01:04:04.931Z,11.08
2023-07-03T01:06:41.980Z,11.08
2023-07-03T01:09:17.326Z,11.04
2023-07-03T01:11:48.234Z,11.02
2023-07-03T01:14:19.690Z,11.09
2023-07-03T01:16:52.283Z,11.06
2023-07-03T01:19:30.437Z,11.07
2023-07-03T01:22:06.824Z,11.11
2023-07-03T01:24:42.635Z,11.10
2023-07-03T01:27:14.901Z,11.11
2023-07-03T01:29:47.930Z,11.10
2023-07-03T01:32:16.775Z,11.03
2023-07-03T01:34:51.142Z,11.02
2023-07-03T01:37:23.759Z,11.04
2023-07-03T01:39:57.244Z,11.01
2023-07-03T01:42:27.961Z,10.94
2023-07-03T01:44:57.898Z,10.95
2023-07-03T01:47:25.932Z,10.97
2023-07-03T01:49:54.073Z,10.88
2023-07-03T01:52:26.408Z,10.82
2023-07-03T01:55:04.829Z,10.87
2023-07-03T01:57:41.390Z,10.73
2023-07-03T02:00:15.665Z,10.75
2023-07-03T02:02:50.947Z,10.78
2023-07-03T02:05:23.883Z,10.78
2023-07-03T02:08:00.745Z,10.81
2023-07-03T02:10:30.227Z,10.78
2023-07-03T02:12:58.215Z,10.76
2023-07-03T02:15:26.482Z,10.74
2023-07-03T02:17:57.158Z,10.73
2023-07-03T02:20:25.405Z,10.72
2023-07-03T02:22:53.435Z,10.74
2023-07-03T02:25:21.645Z,10.75
2023-07-03T02:27:51.563Z,10.74
2023-07-03T02:30:19.638Z,10.70
2023-07-03T02:32:48.065Z,10.65
2023-07-03T02:35:16.286Z,10.61
2023-07-03T02:37:44.462Z,10.55
2023-07-03T02:40:14.791Z,10.53
2023-07-03T02:42:43.147Z,10.47
2023-07-03T02:45:13.072Z,10.45
2023-07-03T02:47:41.127Z,10.41
2023-07-03T02:50:09.982Z,10.34
2023-07-03T02:52:38.553Z,10.36
2023-07-03T02:55:06.666Z,10.38
2023-07-03T02:57:34.779Z,10.41
2023-07-03T03:00:07.102Z,10.41
2023-07-03T03:02:36.813Z,10.37
2023-07-03T03:05:05.084Z,10.35
2023-07-03T03:07:33.207Z,10.30
2023-07-03T03:10:01.203Z,10.31
2023-07-03T03:12:29.205Z,10.34
2023-07-03T03:14:57.482Z,10.35
2023-07-03T03:17:25.500Z,10.32
2023-07-03T03:19:54.895Z,10.29
2023-07-03T03:22:22.905Z,10.32
2023-07-03T03:24:50.901Z,10.28
2023-07-03T03:27:20.092Z,10.28
2023-07-03T03:29:49.399Z,10.33
2023-07-03T03:32:17.370Z,10.35
2023-07-03T03:34:45.396Z,10.31
2023-07-03T03:37:14.743Z,10.30
2023-07-03T03:39:42.758Z,10.27
2023-07-03T03:42:11.509Z,10.26
2023-07-03T03:44:39.862Z,10.20
2023-07-03T03:47:08.194Z,10.19
2023-07-03T03:49:36.221Z,10.18
2023-07-03T03:52:04.480Z,10.16
2023-07-03T03:54:34.240Z,10.20
2023-07-03T03:57:02.233Z,10.25
2023-07-03T03:59:30.430Z,10.26
2023-07-03T04:01:58.503Z,10.20
2023-07-03T04:04:26.668Z,10.18
2023-07-03T04:06:54.830Z,10.18
2023-07-03T04:09:22.857Z,10.14
2023-07-03T04:11:52.240Z,10.14
2023-07-03T04:14:20.195Z,10.13
2023-07-03T04:16:48.881Z,10.13
2023-07-03T04:19:19.902Z,10.23
2023-07-03T04:21:55.301Z,10.19
2023-07-03T04:24:23.387Z,10.13
2023-07-03T04:26:55.425Z,10.06
2023-07-03T04:29:23.848Z,10.00
2023-07-03T04:31:51.900Z,10.00
2023-07-03T04:34:22.701Z,9.99
2023-07-03T04:36:51.054Z,10.03
2023-07-03T04:39:19.072Z,10.04
2023-07-03T04:41:47.059Z,9.97
2023-07-03T04:44:16.421Z,9.96
2023-07-03T04:46:45.097Z,9.94
2023-07-03T04:49:13.573Z,9.95
2023-07-03T04:51:42.895Z,9.99
2023-07-03T04:54:10.946Z,10.04
2023-07-03T04:56:38.960Z,10.13
2023-07-03T04:59:06.896Z,10.21
2023-07-03T05:01:36.292Z,10.24
2023-07-03T05:04:04.669Z,10.29
2023-07-03T05:06:32.672Z,10.35
2023-07-03T05:09:00.630Z,10.37
2023-07-03T05:11:28.666Z,10.36
2023-07-03T05:13:56.641Z,10.34
2023-07-03T05:16:25.200Z,10.37
2023-07-03T05:18:57.410Z,10.43
2023-07-03T05:21:25.415Z,10.38
2023-07-03T05:23:53.371Z,10.35
2023-07-03T05:26:25.774Z,10.32
2023-07-03T05:28:53.769Z,10.38
2023-07-03T05:31:24.666Z,10.48
2023-07-03T05:33:54.253Z,10.49
2023-07-03T05:36:22.315Z,10.48
2023-07-03T05:38:50.496Z,10.45
2023-07-03T05:41:18.445Z,10.50
2023-07-03T05:43:46.472Z,10.48
2023-07-03T05:46:14.417Z,10.52
2023-07-03T05:48:42.574Z,10.50
2023-07-03T05:51:13.375Z,10.42
2023-07-03T05:53:41.314Z,10.35
2023-07-03T05:56:09.585Z,10.37
2023-07-03T05:58:37.529Z,10.41
2023-07-03T06:01:10.317Z,10.43
2023-07-03T06:03:38.465Z,10.42
2023-07-03T06:06:07.425Z,10.38
2023-07-03T06:08:37.063Z,10.43
2023-07-03T06:11:05.096Z,10.39
2023-07-03T06:13:33.061Z,10.45
2023-07-03T06:16:01.076Z,10.53
2023-07-03T06:18:29.153Z,10.57
2023-07-03T06:20:57.195Z,10.62
2023-07-03T06:23:25.299Z,10.64
2023-07-03T06:26:02.141Z,10.63
2023-07-03T06:28:30.213Z,10.70
2023-07-03T06:30:58.186Z,10.81
2023-07-03T06:33:26.150Z,10.86
2023-07-03T06:35:54.400Z,10.84
2023-07-03T06:38:22.838Z,10.85
2023-07-03T06:41:01.534Z,10.85
2023-07-03T06:43:29.514Z,10.84
2023-07-03T06:45:58.619Z,10.85
2023-07-03T06:48:27.062Z,10.80
2023-07-03T06:51:03.455Z,10.88
2023-07-03T06:53:31.492Z,10.90
2023-07-03T06:56:02.048Z,10.78
2023-07-03T06:58:34.776Z,10.86
2023-07-03T07:01:08.159Z,10.90
2023-07-03T07:03:36.943Z,10.96
2023-07-03T07:06:10.604Z,11.08
2023-07-03T07:08:38.791Z,11.06
2023-07-03T07:11:11.961Z,11.08
2023-07-03T07:13:45.140Z,11.09
2023-07-03T07:16:14.889Z,11.18
2023-07-03T07:18:45.266Z,11.21
2023-07-03T07:21:13.313Z,11.26
2023-07-03T07:23:42.431Z,11.28
2023-07-03T07:26:11.836Z,11.29
2023-07-03T07:28:39.809Z,11.24
2023-07-03T07:31:07.803Z,11.19
2023-07-03T07:33:35.825Z,11.13
2023-07-03T07:36:03.876Z,11.06
2023-07-03T07:38:31.845Z,11.08
2023-07-03T07:41:04.078Z,11.04
2023-07-03T07:43:33.579Z,11.10
2023-07-03T07:46:01.577Z,11.08
2023-07-03T07:48:32.001Z,11.09
2023-07-03T07:51:01.850Z,11.08
2023-07-03T07:53:31.844Z,11.14
2023-07-03T07:56:00.302Z,11.17
2023-07-03T07:58:28.425Z,11.21
2023-07-03T08:00:59.097Z,11.23
2023-07-03T08:03:27.808Z,11.24
2023-07-03T08:05:58.273Z,11.24
2023-07-03T08:08:27.457Z,11.22
2023-07-03T08:10:55.772Z,11.25
2023-07-03T08:13:24.650Z,11.31
2023-07-03T08:15:53.764Z,11.37
2023-07-03T08:18:23.915Z,11.30
2023-07-03T08:20:52.644Z,11.33
2023-07-03T08:23:21.123Z,11.36
2023-07-03T08:25:51.500Z,11.35
2023-07-03T08:28:20.760Z,11.34
2023-07-03T08:30:48.853Z,11.32
2023-07-03T08:33:17.955Z,11.39
2023-07-03T08:38:18.851Z,11.31
2023-07-03T08:40:46.939Z,11.34
2023-07-03T08:43:21.375Z,11.37
2023-07-03T08:45:52.110Z,11.40
2023-07-03T08:48:24.721Z,11.38
2023-07-03T08:50:56.889Z,11.42
2023-07-03T08:53:29.811Z,11.41
2023-07-03T08:56:04.479Z,11.39
2023-07-03T08:58:32.245Z,11.48
2023-07-03T09:01:09.914Z,11.49
2023-07-03T09:03:51.985Z,11.54
2023-07-03T09:06:27.274Z,11.59
2023-07-03T09:09:05.440Z,11.67
2023-07-03T09:11:39.701Z,11.68
2023-07-03T09:14:12.887Z,11.78
2023-07-03T09:16:42.749Z,11.79
2023-07-03T09:19:17.628Z,11.70
2023-07-03T09:21:47.652Z,11.70
2023-07-03T09:24:23.443Z,11.75
2023-07-03T09:26:58.764Z,11.72
2023-07-03T09:29:28.500Z,11.75
2023-07-03T09:31:56.955Z,11.71
2023-07-03T09:34:25.940Z,11.70
2023-07-03T09:37:00.538Z,11.67
2023-07-03T09:39:28.878Z,11.58
2023-07-03T09:42:08.014Z,11.62
2023-07-03T09:44:42.942Z,11.67
2023-07-03T09:47:19.387Z,11.72
2023-07-03T09:49:47.459Z,11.72
2023-07-03T09:52:17.629Z,11.75
2023-07-03T09:54:51.022Z,11.82
2023-07-03T09:57:26.671Z,11.90
2023-07-03T09:59:56.239Z,11.87
2023-07-03T10:07:30.259Z,12.07
2023-07-03T10:12:35.631Z,12.06
2023-07-03T10:15:09.580Z,12.15
2023-07-03T10:17:42.124Z,12.19
2023-07-03T10:20:20.431Z,12.20
2023-07-03T10:22:50.869Z,12.23
2023-07-03T10:25:26.839Z,12.23
2023-07-03T10:27:59.053Z,12.28
2023-07-03T10:30:30.969Z,12.30
2023-07-03T10:33:05.968Z,12.38
2023-07-03T10:35:36.180Z,12.46
2023-07-03T10:38:16.321Z,12.39
2023-07-03T10:40:54.143Z,12.43
2023-07-03T10:43:26.542Z,12.38
2023-07-03T10:45:55.653Z,12.35
2023-07-03T10:48:27.783Z,12.25
2023-07-03T10:51:06.721Z,12.30
2023-07-03T10:53:45.837Z,12.29
2023-07-03T10:56:23.014Z,12.21
2023-07-03T10:58:58.525Z,12.21
2023-07-03T11:01:34.748Z,12.28
2023-07-03T11:04:23.868Z,12.37
2023-07-03T11:07:00.859Z,12.45
2023-07-03T11:09:40.042Z,12.56
2023-07-03T11:12:16.359Z,12.68
2023-07-03T11:14:52.219Z,12.78
2023-07-03T11:17:31.832Z,12.97
2023-07-03T11:20:07.443Z,13.21
2023-07-03T11:22:45.448Z,13.43
2023-07-03T11:25:22.611Z,13.68
2023-07-03T11:27:58.804Z,13.86
2023-07-03T11:30:27.335Z,13.93
2023-07-03T11:32:56.151Z,13.97
2023-07-03T11:40:39.671Z,13.86
2023-07-03T11:46:07.619Z,13.83
2023-07-03T11:48:44.798Z,13.76
2023-07-03T11:51:16.117Z,13.71
2023-07-03T11:53:49.136Z,13.75
2023-07-03T11:56:50.421Z,13.82
2023-07-03T11:59:44.223Z,13.77
2023-07-03T12:02:53.153Z,13.94
2023-07-03T12:05:54.312Z,14.03
2023-07-03T12:08:49.289Z,14.05
2023-07-03T12:11:19.947Z,14.17
2023-07-03T12:13:53.996Z,14.28
2023-07-03T12:16:26.070Z,14.37
2023-07-03T12:19:08.881Z,14.41
2023-07-03T12:21:41.169Z,14.49
2023-07-03T12:24:25.059Z,14.48
2023-07-03T12:26:57.806Z,14.44
2023-07-03T12:29:25.806Z,14.46
2023-07-03T12:32:07.052Z,14.42
2023-07-03T12:34:37.827Z,14.36
2023-07-03T12:37:09.356Z,14.27
2023-07-03T12:39:37.777Z,14.28
2023-07-03T12:42:12.167Z,14.27
2023-07-03T12:44:40.298Z,14.31
2023-07-03T12:47:14.210Z,14.24
2023-07-03T12:49:57.430Z,14.24
2023-07-03T12:52:26.637Z,14.24
2023-07-03T12:55:09.382Z,14.18
2023-07-03T12:57:43.953Z,14.09
2023-07-03T13:00:18.036Z,14.08
2023-07-03T13:02:47.957Z,13.98
2023-07-03T13:05:22.937Z,13.96
2023-07-03T13:07:52.498Z,13.84
2023-07-03T13:10:22.223Z,13.81
2023-07-03T13:13:10.578Z,13.80
2023-07-03T13:15:40.221Z,13.67
2023-07-03T13:18:10.465Z,13.59
2023-07-03T13:20:39.111Z,13.55
2023-07-03T13:23:10.211Z,13.56
2023-07-03T13:25:41.251Z,13.53
2023-07-03T13:28:20.630Z,13.58
2023-07-03T13:31:08.136Z,13.47
2023-07-03T13:33:37.373Z,13.49
2023-07-03T13:36:21.337Z,13.54
2023-07-03T13:39:02.798Z,13.54
2023-07-03T13:41:31.185Z,13.57
2023-07-03T13:44:03.681Z,13.61
2023-07-03T13:46:32.192Z,13.72
2023-07-03T13:49:00.447Z,13.66
2023-07-03T13:51:29.221Z,13.67
2023-07-03T13:54:11.254Z,13.68
2023-07-03T13:56:43.425Z,13.73
2023-07-03T13:59:17.956Z,13.72
2023-07-03T14:01:48.403Z,13.72
2023-07-03T14:04:16.845Z,13.80
2023-07-03T14:06:46.020Z,13.92
2023-07-03T14:09:16.979Z,13.94
2023-07-03T14:11:48.742Z,14.03
2023-07-03T14:14:20.916Z,14.10
2023-07-03T14:16:54.372Z,14.10
2023-07-03T14:19:31.073Z,14.03
2023-07-03T14:22:03.568Z,13.96
2023-07-03T14:24:35.329Z,14.00
2023-07-03T14:27:21.015Z,14.01
2023-07-03T14:29:50.377Z,14.02
2023-07-03T14:32:18.394Z,14.06
2023-07-03T14:34:47.869Z,14.12
2023-07-03T14:37:19.020Z,14.20
2023-07-03T14:39:47.056Z,14.15
2023-07-03T14:42:20.376Z,14.16
2023-07-03T14:44:48.729Z,14.21
2023-07-03T14:47:18.701Z,14.20
2023-07-03T14:49:49.632Z,14.18
2023-07-03T14:52:19.843Z,14.14
2023-07-03T14:54:48.525Z,14.16
2023-07-03T14:57:19.092Z,14.21
2023-07-03T14:59:51.091Z,14.16
2023-07-03T15:02:28.324Z,14.08
2023-07-03T15:04:59.369Z,14.05
2023-07-03T15:07:30.117Z,14.07
2023-07-03T15:09:58.157Z,13.96
2023-07-03T15:12:37.027Z,13.89
2023-07-03T15:15:10.696Z,13.83
2023-07-03T15:17:40.599Z,13.80
2023-07-03T15:20:10.032Z,13.77
2023-07-03T15:22:39.765Z,13.77
2023-07-03T15:25:08.340Z,13.69
2023-07-03T15:27:38.856Z,13.71
2023-07-03T15:30:07.985Z,13.73
2023-07-03T15:32:36.038Z,13.81
2023-07-03T15:35:06.071Z,13.86
2023-07-03T15:37:34.237Z,13.89
2023-07-03T15:40:05.080Z,13.95
2023-07-03T15:42:33.233Z,14.08
2023-07-03T15:45:02.565Z,14.19
2023-07-03T15:47:30.691Z,14.40
2023-07-03T15:49:58.826Z,14.45
2023-07-03T15:52:28.290Z,14.57
2023-07-03T15:54:56.410Z,14.73
2023-07-03T15:57:26.069Z,15.07
2023-07-03T15:59:54.616Z,15.80
2023-07-03T16:02:24.426Z,17.53
2023-07-03T16:04:52.829Z,20.05
2023-07-03T16:08:03.149Z,22.38
2023-07-03T16:13:24.590Z,24.51
2023-07-03T16:15:55.840Z,24.61
2023-07-03T16:18:23.858Z,25.40
2023-07-03T16:20:58.001Z,25.68
2023-07-03T16:23:27.649Z,26.39
2023-07-03T16:25:58.052Z,26.75
2023-07-03T16:28:26.108Z,25.90
2023-07-03T16:31:00.861Z,24.33
2023-07-03T16:33:29.628Z,22.83
2023-07-03T16:35:58.445Z,21.63
2023-07-03T16:38:28.400Z,20.58
2023-07-03T16:41:01.292Z,19.49
2023-07-03T16:43:30.744Z,18.69
2023-07-03T16:46:01.116Z,18.09
2023-07-03T16:48:30.387Z,17.83
2023-07-03T16:50:59.953Z,17.76
2023-07-03T16:53:30.590Z,17.55
2023-07-03T16:56:03.879Z,17.48
2023-07-03T16:58:32.511Z,17.36
2023-07-03T17:01:05.472Z,17.30
2023-07-03T17:03:34.185Z,17.19
2023-07-03T17:06:04.103Z,17.12
2023-07-03T17:08:33.933Z,17.04
2023-07-03T17:11:03.108Z,17.05
2023-07-03T17:13:31.568Z,17.13
2023-07-03T17:15:59.822Z,17.20
2023-07-03T17:18:29.591Z,17.51
2023-07-03T17:20:57.578Z,17.70
2023-07-03T17:23:25.669Z,17.65
2023-07-03T17:25:56.618Z,17.62
2023-07-03T17:28:24.989Z,17.48
2023-07-03T17:30:52.759Z,17.26
2023-07-03T17:33:20.797Z,17.03
2023-07-03T17:35:50.667Z,16.71
2023-07-03T17:38:19.246Z,16.32
2023-07-03T17:40:48.214Z,16.05
2023-07-03T17:43:23.575Z,15.91
2023-07-03T17:45:53.815Z,15.96
2023-07-03T17:48:23.383Z,16.42
2023-07-03T17:50:51.607Z,16.42
2023-07-03T17:53:22.660Z,16.41
2023-07-03T17:55:51.308Z,16.36
2023-07-03T17:58:22.859Z,16.37
2023-07-03T18:00:52.702Z,16.40
2023-07-03T18:03:20.955Z,16.39
2023-07-03T18:05:48.890Z,16.39
2023-07-03T18:08:17.287Z,16.53
2023-07-03T18:10:45.471Z,16.73
2023-07-03T18:13:13.950Z,17.07
2023-07-03T18:15:49.574Z,17.14
2023-07-03T18:18:20.799Z,18.23
2023-07-03T18:20:49.242Z,19.40
2023-07-03T18:23:18.495Z,19.48
2023-07-03T18:25:47.952Z,20.08
2023-07-03T18:28:17.730Z,20.70
2023-07-03T18:30:47.658Z,20.30
2023-07-03T18:33:18.585Z,20.70
2023-07-03T18:35:46.567Z,21.11
2023-07-03T18:38:14.629Z,21.67
2023-07-03T18:40:45.908Z,21.45
2023-07-03T18:43:14.106Z,20.79
2023-07-03T18:45:45.180Z,20.14
2023-07-03T18:48:17.086Z,19.47
2023-07-03T18:50:45.133Z,18.86
2023-07-03T18:53:13.156Z,18.21
2023-07-03T18:55:47.126Z,17.60
2023-07-03T18:58:22.435Z,17.23
2023-07-03T19:00:50.741Z,16.89
2023-07-03T19:03:20.471Z,16.52
2023-07-03T19:05:56.194Z,16.35
2023-07-03T19:08:24.457Z,16.13
2023-07-03T19:10:54.188Z,15.91
2023-07-03T19:13:22.431Z,15.74
2023-07-03T19:15:52.502Z,15.62
2023-07-03T19:18:22.168Z,15.46
2023-07-03T19:20:50.141Z,15.35
2023-07-03T19:23:18.509Z,15.32
2023-07-03T19:25:53.354Z,15.22
2023-07-03T19:28:21.731Z,15.22
2023-07-03T19:30:54.089Z,15.09
2023-07-03T19:33:23.509Z,15.06
2023-07-03T19:35:51.831Z,15.00
2023-07-03T19:38:20.189Z,14.98
2023-07-03T19:40:50.472Z,14.91
2023-07-03T19:43:22.327Z,14.85
2023-07-03T19:45:50.773Z,14.82
2023-07-03T19:48:19.194Z,14.84
2023-07-03T19:50:49.190Z,14.80
2023-07-03T19:53:17.260Z,14.75
2023-07-03T19:55:45.692Z,14.59
2023-07-03T19:58:13.466Z,14.52
2023-07-03T20:00:41.534Z,14.38
2023-07-03T20:03:11.495Z,14.27
2023-07-03T20:05:42.806Z,14.22
2023-07-03T20:08:12.313Z,14.14
2023-07-03T20:10:40.750Z,14.11
2023-07-03T20:13:08.549Z,14.08
2023-07-03T20:15:41.986Z,14.08
2023-07-03T20:18:10.091Z,14.08
2023-07-03T20:21:03.840Z,13.99
2023-07-03T20:23:38.787Z,13.95
2023-07-03T20:26:10.417Z,13.87
2023-07-03T20:28:38.532Z,13.81
2023-07-03T20:31:09.326Z,13.73
2023-07-03T20:33:37.326Z,13.71
2023-07-03T20:36:09.712Z,13.69
2023-07-03T20:38:39.808Z,13.72
2023-07-03T20:41:11.730Z,13.72
2023-07-03T20:43:41.150Z,13.69
2023-07-03T20:46:12.044Z,13.71
2023-07-03T20:48:40.683Z,13.71
2023-07-03T20:51:22.302Z,13.70
2023-07-03T20:54:10.651Z,13.71
2023-07-03T20:56:43.129Z,13.67
2023-07-03T20:59:14.199Z,13.65
2023-07-03T21:01:45.665Z,13.60
2023-07-03T21:04:13.651Z,13.59
2023-07-03T21:06:41.827Z,13.62
2023-07-03T21:09:11.552Z,13.58
2023-07-03T21:11:43.899Z,13.50
2023-07-03T21:14:13.487Z,13.40
2023-07-03T21:16:44.472Z,13.34
2023-07-03T21:19:17.126Z,13.38
2023-07-03T21:21:47.489Z,13.36
2023-07-03T21:24:26.938Z,13.32
2023-07-03T21:26:55.555Z,13.29
2023-07-03T21:29:23.519Z,13.30
2023-07-03T21:31:54.377Z,13.33
2023-07-03T21:34:24.931Z,13.34
2023-07-03T21:36:52.882Z,13.38
2023-07-03T21:39:22.265Z,13.36
2023-07-03T21:41:50.228Z,13.38
2023-07-03T21:44:19.241Z,13.41
2023-07-03T21:46:47.346Z,13.34
2023-07-03T21:49:17.282Z,13.32
2023-07-03T21:51:45.399Z,13.35
2023-07-03T21:54:13.404Z,13.36
2023-07-03T21:56:43.395Z,13.34
2023-07-03T21:59:12.683Z,13.34
2023-07-03T22:01:43.144Z,13.31
2023-07-03T22:04:11.933Z,13.29
2023-07-03T22:06:40.174Z,13.28
2023-07-03T22:09:08.127Z,13.27
2023-07-03T22:11:36.429Z,13.23
2023-07-03T22:14:08.084Z,13.27
2023-07-03T22:16:36.691Z,13.27
2023-07-03T22:19:06.872Z,13.30
2023-07-03T22:21:36.059Z,13.35
2023-07-03T22:24:04.171Z,13.38
2023-07-03T22:26:32.168Z,13.44
2023-07-03T22:29:00.357Z,13.51
2023-07-03T22:31:40.615Z,13.54
2023-07-03T22:34:08.914Z,13.48
2023-07-03T22:36:39.257Z,13.48
2023-07-03T22:39:10.243Z,13.47
2023-07-03T22:41:38.199Z,13.51
2023-07-03T22:44:09.034Z,13.53
2023-07-03T22:46:41.373Z,13.57
2023-07-03T22:49:23.138Z,13.56
2023-07-03T22:51:53.199Z,13.58
2023-07-03T22:54:22.650Z,13.54
2023-07-03T22:56:50.829Z,13.51
2023-07-03T22:59:18.788Z,13.53
2023-07-03T23:01:49.292Z,13.52
2023-07-03T23:04:18.298Z,13.53
2023-07-03T23:06:48.504Z,13.51
2023-07-03T23:09:17.844Z,13.54
2023-07-03T23:11:46.017Z,13.51
2023-07-03T23:14:16.125Z,13.51
2023-07-03T23:16:44.996Z,13.51
2023-07-03T23:19:14.423Z,13.53
2023-07-03T23:21:42.461Z,13.52
2023-07-03T23:24:10.929Z,13.56
2023-07-03T23:26:39.458Z,13.56
2023-07-03T23:29:08.861Z,13.53
2023-07-03T23:31:39.836Z,13.46
2023-07-03T23:34:08.013Z,13.44
2023-07-03T23:36:37.344Z,13.43
2023-07-03T23:39:06.130Z,13.51
2023-07-03T23:41:34.084Z,13.49
2023-07-03T23:44:02.190Z,13.45
2023-07-03T23:46:30.241Z,13.42
2023-07-03T23:48:58.594Z,13.33
2023-07-03T23:51:26.593Z,13.28
2023-07-03T23:53:55.920Z,13.30
2023-07-03T23:56:24.334Z,13.28
2023-07-03T23:58:52.143Z,13.20
